Time;durP1;ratioP1;P1;durP2;ratioP2;P2;SDS_P1;SDS_P2;PMS_P1;PMS_P2;Temp;Humidity;BMP_temperature;BMP_pressure;BME280_temperature;BME280_humidity;BME280_pressure;Samples;Min_cycle;Max_cycle;Signal;HPM_P1;HPM_P2
2022/06/03 00:01:27;;;;;;;;;4.00;4.00;;;;;11.80;58.55;100292.91;5039429;28;8855;-64
2022/06/03 00:03:55;;;;;;;;;7.00;7.00;;;;;11.71;58.44;100297.19;5038872;28;8856;-63
2022/06/03 00:06:22;;;;;;;;;1.00;0.25;;;;;11.64;58.80;100292.44;5056610;28;9474;-64
2022/06/03 00:08:50;;;;;;;;;6.00;6.00;;;;;11.57;59.11;100284.03;5059049;28;8860;-63
2022/06/03 00:11:18;;;;;;;;;6.75;6.00;;;;;11.52;59.36;100272.03;5059050;28;8845;-64
2022/06/03 00:13:46;;;;;;;;;6.00;6.00;;;;;11.46;59.22;100276.00;5059082;28;8851;-63
2022/06/03 00:16:14;;;;;;;;;8.00;6.25;;;;;11.41;59.34;100274.69;5042167;28;8865;-68
2022/06/03 00:18:48;;;;;;;;;8.25;6.50;;;;;11.36;59.41;100272.38;5038756;28;8863;-63
2022/06/03 00:21:16;;;;;;;;;6.25;6.25;;;;;11.31;59.62;100271.03;5039111;28;8837;-64
2022/06/03 00:23:43;;;;;;;;;7.50;7.00;;;;;11.26;60.01;100268.72;5038781;28;8871;-63
2022/06/03 00:26:11;;;;;;;;;6.25;6.00;;;;;11.21;59.87;100267.41;5053788;28;8818;-63
2022/06/03 00:28:39;;;;;;;;;4.00;3.25;;;;;11.16;59.82;100265.06;5047210;28;8835;-63
2022/06/03 00:31:07;;;;;;;;;6.50;6.50;;;;;11.12;59.53;100270.75;5039103;28;8821;-63
2022/06/03 00:33:34;;;;;;;;;7.00;7.00;;;;;11.08;59.59;100266.63;5038890;28;8848;-64
2022/06/03 00:36:03;;;;;;;;;6.00;6.00;;;;;11.03;59.88;100269.66;5038982;28;9628;-63
2022/06/03 00:38:30;;;;;;;;;10.50;8.50;;;;;10.99;59.95;100259.34;5047426;28;8985;-63
2022/06/03 00:40:58;;;;;;;;;6.00;6.00;;;;;10.96;60.11;100260.41;5058464;28;8856;-65
2022/06/03 00:43:27;;;;;;;;;8.00;7.00;;;;;10.93;60.33;100257.97;5058180;28;8888;-63
2022/06/03 00:45:55;;;;;;;;;8.00;7.50;;;;;10.89;60.00;100258.31;5058690;28;8976;-63
2022/06/03 00:48:23;;;;;;;;;7.75;6.50;;;;;10.86;60.23;100261.22;5049869;28;8851;-66
2022/06/03 00:50:51;;;;;;;;;6.00;4.00;;;;;10.81;60.51;100263.38;5038413;28;8983;-63
2022/06/03 00:53:19;;;;;;;;;6.00;6.00;;;;;10.78;60.36;100251.13;5037704;28;8848;-66
2022/06/03 00:55:46;;;;;;;;;7.50;6.25;;;;;10.74;60.39;100248.81;5038352;28;8953;-63
2022/06/03 00:58:14;;;;;;;;;12.00;8.00;;;;;10.71;60.56;100249.06;5044598;28;8980;-63
2022/06/03 01:00:42;;;;;;;;;5.75;5.75;;;;;10.69;60.76;100243.84;5058541;28;9491;-63
2022/06/03 01:03:10;;;;;;;;;4.00;4.00;;;;;10.65;60.57;100245.06;5058303;28;9531;-63
2022/06/03 01:05:38;;;;;;;;;4.00;3.75;;;;;10.64;60.49;100245.16;5058390;28;9515;-64
2022/06/03 01:08:06;;;;;;;;;6.00;5.00;;;;;10.62;60.74;100241.78;5052720;28;8852;-64
2022/06/03 01:10:34;;;;;;;;;6.00;6.00;;;;;10.60;60.97;100247.22;5037949;28;8954;-64
2022/06/03 01:13:02;;;;;;;;;3.00;3.00;;;;;10.57;60.68;100238.59;5038197;28;8861;-63
2022/06/03 01:15:30;;;;;;;;;6.50;6.50;;;;;10.55;60.26;100238.69;5037511;28;9490;-63
2022/06/03 01:17:58;;;;;;;;;8.00;7.00;;;;;10.53;60.84;100243.31;5041208;28;8830;-63
2022/06/03 01:20:26;;;;;;;;;3.50;3.50;;;;;10.51;60.52;100242.56;5057521;28;8968;-63
2022/06/03 01:22:53;;;;;;;;;4.00;4.00;;;;;10.50;60.67;100243.53;5057987;28;8860;-63
2022/06/03 01:25:21;;;;;;;;;6.00;6.00;;;;;10.47;60.52;100241.09;5057572;28;8850;-63
2022/06/03 01:27:50;;;;;;;;;8.00;6.50;;;;;10.46;60.71;100241.22;5054903;28;8994;-63
2022/06/03 01:30:18;;;;;;;;;6.00;5.00;;;;;10.45;60.76;100237.69;5037370;28;8864;-63
2022/06/03 01:32:45;;;;;;;;;4.00;3.50;;;;;10.44;60.86;100236.00;5037373;28;8974;-63
2022/06/03 01:35:13;;;;;;;;;8.50;7.50;;;;;10.41;60.68;100238.88;5037734;28;8914;-64
2022/06/03 01:37:42;;;;;;;;;6.50;5.25;;;;;10.39;60.64;100238.16;5038531;28;8975;-63
2022/06/03 01:40:10;;;;;;;;;6.50;6.25;;;;;10.36;60.79;100241.06;5057599;28;8857;-64
2022/06/03 01:42:38;;;;;;;;;6.25;6.25;;;;;10.32;60.77;100231.56;5057051;28;8843;-66
2022/06/03 01:45:06;;;;;;;;;6.50;5.50;;;;;10.31;61.21;100235.19;5056947;28;8842;-64
2022/06/03 01:47:34;;;;;;;;;4.50;4.50;;;;;10.30;61.35;100236.16;5055414;28;8805;-63
2022/06/03 01:50:02;;;;;;;;;7.00;7.00;;;;;10.30;60.91;100238.84;5057332;28;8834;-63
2022/06/03 01:52:30;;;;;;;;;6.50;6.25;;;;;10.29;60.71;100237.13;5057311;28;8858;-63
2022/06/03 01:54:57;;;;;;;;;5.00;5.00;;;;;10.28;61.27;100226.59;5057038;28;8822;-63
2022/06/03 01:57:25;;;;;;;;;7.00;6.75;;;;;10.27;61.49;100236.41;5040058;28;8891;-64
2022/06/03 01:59:53;;;;;;;;;9.00;8.50;;;;;10.27;61.18;100231.09;5036963;28;8829;-63
2022/06/03 02:02:21;;;;;;;;;5.75;5.75;;;;;10.25;61.29;100235.66;5037464;28;8959;-63
2022/06/03 02:04:49;;;;;;;;;6.50;5.00;;;;;10.27;61.02;100232.88;5036277;28;8856;-64
2022/06/03 02:07:17;;;;;;;;;6.75;6.50;;;;;10.25;61.26;100232.16;5051457;28;8814;-63
2022/06/03 02:09:45;;;;;;;;;6.50;6.00;;;;;10.23;61.38;100232.25;5057261;28;9529;-63
2022/06/03 02:12:13;;;;;;;;;5.25;5.00;;;;;10.20;61.15;100229.84;5057031;28;8850;-63
2022/06/03 02:14:40;;;;;;;;;6.75;6.25;;;;;10.18;61.34;100231.75;5056983;28;8835;-63
2022/06/03 02:17:08;;;;;;;;;6.50;5.75;;;;;10.16;61.32;100224.84;5042255;28;8820;-64
2022/06/03 02:19:36;;;;;;;;;8.50;7.25;;;;;10.14;61.43;100224.09;5036371;28;8959;-63
2022/06/03 02:22:04;;;;;;;;;4.50;4.50;;;;;10.09;61.43;100221.78;5036908;28;8816;-63
2022/06/03 02:24:32;;;;;;;;;7.50;6.25;;;;;10.07;61.45;100217.53;5036235;28;8863;-63
2022/06/03 02:27:06;;;;;;;;;14.00;12.50;;;;;10.06;61.62;100213.16;5143846;27;13459;-64
2022/06/03 02:32:19;;;;;;;;;7.00;6.00;;;;;10.09;61.23;100205.81;5132663;27;8855;-64
2022/06/03 02:34:49;;;;;;;;;6.25;6.25;;;;;10.07;61.24;100205.09;5134181;27;8822;-64
2022/06/03 02:37:17;;;;;;;;;8.50;7.00;;;;;10.04;62.01;100205.31;5133927;27;8833;-69
2022/06/03 02:39:45;;;;;;;;;8.50;7.00;;;;;9.99;61.25;100202.09;5133943;27;8829;-64
2022/06/03 02:42:13;;;;;;;;;6.25;6.25;;;;;9.94;61.58;100204.25;5133332;27;8833;-64
2022/06/03 02:44:41;;;;;;;;;9.25;7.00;;;;;9.89;62.26;100202.88;5113347;28;8828;-64
2022/06/03 02:47:09;;;;;;;;;3.75;3.50;;;;;9.83;61.97;100204.19;5113050;28;8859;-64
2022/06/03 02:49:37;;;;;;;;;9.50;8.50;;;;;9.78;62.39;100208.13;5113433;28;8851;-64
2022/06/03 02:52:04;;;;;;;;;7.75;7.75;;;;;9.72;62.21;100198.78;5112711;28;8832;-64
2022/06/03 02:54:32;;;;;;;;;7.00;6.00;;;;;9.65;61.89;100210.81;5113132;28;8812;-64
2022/06/03 02:57:00;;;;;;;;;7.00;7.00;;;;;9.58;62.25;100198.91;5113189;28;8831;-66
2022/06/03 02:59:28;;;;;;;;;7.00;6.00;;;;;9.54;62.51;100217.84;5113055;28;8982;-65
2022/06/03 03:01:56;;;;;;;;;8.50;7.00;;;;;9.50;62.42;100200.44;5113035;28;8978;-65
2022/06/03 03:04:24;;;;;;;;;8.00;8.00;;;;;9.47;63.01;100200.63;5131211;27;9455;-64
2022/06/03 03:06:52;;;;;;;;;8.00;8.00;;;;;9.44;62.83;100196.41;5134026;27;8886;-64
2022/06/03 03:09:20;;;;;;;;;8.40;8.20;;;;;9.42;63.24;100194.81;5132175;27;8829;-64
2022/06/03 03:11:48;;;;;;;;;8.50;7.00;;;;;9.40;62.98;100202.88;5132089;27;8830;-65
2022/06/03 03:14:16;;;;;;;;;10.00;8.00;;;;;9.38;63.02;100199.50;5115749;28;8962;-64
2022/06/03 03:16:44;;;;;;;;;7.50;6.50;;;;;9.41;62.70;100193.94;5112973;28;8946;-64
2022/06/03 03:19:12;;;;;;;;;9.40;9.00;;;;;9.42;62.74;100192.97;5112733;28;8866;-66
2022/06/03 03:21:39;;;;;;;;;8.20;7.40;;;;;9.43;62.77;100184.03;5113038;28;8824;-64
2022/06/03 03:24:07;;;;;;;;;5.00;5.00;;;;;9.41;62.81;100191.28;5127945;27;8967;-64
2022/06/03 03:26:35;;;;;;;;;6.50;6.00;;;;;9.40;62.85;100194.03;5133361;27;8978;-65
2022/06/03 03:29:04;;;;;;;;;8.50;7.50;;;;;9.38;62.87;100193.31;5133023;27;8978;-65
2022/06/03 03:31:31;;;;;;;;;7.00;6.00;;;;;9.37;62.67;100188.97;5132859;27;8882;-65
2022/06/03 03:34:00;;;;;;;;;6.50;6.50;;;;;9.37;62.93;100187.16;5118170;28;8821;-65
2022/06/03 03:36:27;;;;;;;;;4.00;4.00;;;;;9.35;62.87;100186.41;5110615;28;8829;-65
2022/06/03 03:38:55;;;;;;;;;3.25;3.25;;;;;9.35;62.78;100177.59;5098002;28;8836;-64
2022/06/03 03:41:23;;;;;;;;;9.00;8.50;;;;;9.36;62.80;100181.94;5105715;28;8816;-64
2022/06/03 03:43:51;;;;;;;;;6.50;6.25;;;;;9.39;62.68;100176.41;5114872;28;8810;-64
2022/06/03 03:46:19;;;;;;;;;4.00;4.00;;;;;9.40;62.82;100181.63;5098113;28;8864;-64
2022/06/03 03:48:47;;;;;;;;;8.20;8.20;;;;;9.41;62.50;100175.34;5098004;28;8968;-65
2022/06/03 03:51:15;;;;;;;;;8.20;7.80;;;;;9.44;62.87;100177.81;5103651;28;9732;-65
2022/06/03 03:53:43;;;;;;;;;7.00;6.75;;;;;9.47;62.56;100174.91;5118334;28;8873;-65
2022/06/03 03:56:11;;;;;;;;;7.00;6.00;;;;;9.49;62.69;100188.94;5118373;28;8807;-68
2022/06/03 03:58:39;;;;;;;;;6.75;6.25;;;;;9.49;62.84;100185.44;5118232;28;9551;-65
2022/06/03 04:01:07;;;;;;;;;9.00;9.00;;;;;9.53;62.54;100185.13;5112726;28;8854;-65
2022/06/03 04:03:35;;;;;;;;;9.25;8.00;;;;;9.57;62.15;100172.44;5097145;28;8841;-64
2022/06/03 04:06:03;;;;;;;;;7.50;7.50;;;;;9.63;62.14;100180.81;5097553;28;8959;-64
2022/06/03 04:08:31;;;;;;;;;7.50;7.50;;;;;9.69;62.15;100183.06;5098320;28;8952;-64
2022/06/03 04:10:59;;;;;;;;;6.25;5.50;;;;;9.77;62.11;100188.66;5101776;28;8836;-64
2022/06/03 04:13:27;;;;;;;;;8.50;7.00;;;;;9.85;62.33;100183.63;5118179;28;8842;-64
2022/06/03 04:15:55;;;;;;;;;8.00;8.00;;;;;9.93;61.72;100183.91;5118393;28;8977;-65
2022/06/03 04:18:23;;;;;;;;;7.00;7.00;;;;;10.01;61.51;100178.06;5117667;28;8866;-64
2022/06/03 04:20:51;;;;;;;;;7.00;7.00;;;;;10.08;61.64;100182.00;5114636;28;9572;-66
2022/06/03 04:23:18;;;;;;;;;6.00;6.00;;;;;10.15;61.14;100181.41;5096599;28;8980;-64
2022/06/03 04:25:46;;;;;;;;;7.00;6.75;;;;;10.24;60.99;100180.72;5097276;28;8834;-64
2022/06/03 04:28:14;;;;;;;;;5.50;5.50;;;;;10.34;60.73;100179.09;5096898;28;8929;-64
2022/06/03 04:30:42;;;;;;;;;8.75;6.25;;;;;10.46;60.54;100174.66;5097626;28;8966;-64
2022/06/03 04:33:10;;;;;;;;;10.75;8.50;;;;;10.57;60.58;100169.38;5117970;28;8843;-64
2022/06/03 04:35:39;;;;;;;;;4.00;4.00;;;;;10.72;60.58;100163.72;5117682;28;8853;-64
2022/06/03 04:38:07;;;;;;;;;5.00;4.50;;;;;10.85;59.75;100168.97;5117881;28;8962;-64
2022/06/03 04:40:35;;;;;;;;;5.50;5.50;;;;;10.96;59.78;100166.31;5117686;28;8836;-64
2022/06/03 04:43:03;;;;;;;;;6.75;6.50;;;;;11.08;59.96;100163.53;5076833;28;8850;-65
2022/06/03 04:45:31;;;;;;;;;7.00;6.75;;;;;11.22;59.38;100168.63;5076742;28;8840;-64
2022/06/03 04:47:59;;;;;;;;;6.50;6.50;;;;;11.34;59.18;100162.34;5076334;28;9585;-65
2022/06/03 04:50:26;;;;;;;;;3.50;3.50;;;;;11.46;59.44;100166.69;5076557;28;8871;-65
2022/06/03 04:52:54;;;;;;;;;5.25;5.00;;;;;11.57;59.37;100158.69;5115582;28;8949;-65
2022/06/03 04:55:22;;;;;;;;;6.75;6.75;;;;;11.68;59.00;100153.34;5116266;28;8908;-64
2022/06/03 04:57:50;;;;;;;;;6.25;6.00;;;;;11.79;58.85;100147.16;5114141;28;8870;-64
2022/06/03 05:00:22;;;;;;;;;9.50;9.00;;;;;11.91;58.94;100152.34;5116392;28;8840;-64
2022/06/03 05:02:50;;;;;;;;;6.50;6.00;;;;;12.04;58.64;100145.03;5117388;28;8828;-64
2022/06/03 05:05:18;;;;;;;;;6.75;6.00;;;;;12.16;58.37;100152.03;5116981;28;8846;-64
2022/06/03 05:07:47;;;;;;;;;7.00;6.00;;;;;12.26;58.40;100140.47;5106472;28;8996;-65
2022/06/03 05:10:15;;;;;;;;;7.50;7.50;;;;;12.34;58.28;100150.50;5096931;28;8833;-65
2022/06/03 05:12:43;;;;;;;;;5.00;5.00;;;;;12.44;58.13;100138.06;5096275;28;8868;-64
2022/06/03 05:15:11;;;;;;;;;6.50;6.50;;;;;12.55;57.80;100140.69;5096582;28;8981;-65
2022/06/03 05:17:38;;;;;;;;;7.00;6.00;;;;;12.63;57.58;100152.44;5105156;28;8804;-65
2022/06/03 05:20:06;;;;;;;;;6.00;6.00;;;;;12.71;57.81;100138.41;5116065;28;8852;-65
2022/06/03 05:22:34;;;;;;;;;8.00;8.00;;;;;12.80;57.48;100140.28;5116036;28;8978;-65
2022/06/03 05:25:02;;;;;;;;;6.00;6.00;;;;;12.88;57.63;100136.00;5112350;28;8844;-65
2022/06/03 05:27:30;;;;;;;;;7.50;6.25;;;;;13.00;57.31;100140.28;5113145;28;8848;-65
2022/06/03 05:29:58;;;;;;;;;6.25;6.00;;;;;13.10;57.04;100135.00;5116465;28;8844;-65
2022/06/03 05:32:25;;;;;;;;;5.50;5.50;;;;;13.20;56.96;100135.91;5116407;28;8954;-64
2022/06/03 05:34:53;;;;;;;;;6.25;6.25;;;;;13.31;56.78;100128.66;5115962;28;8840;-65
2022/06/03 05:37:21;;;;;;;;;5.50;5.50;;;;;13.45;57.13;100124.75;5108027;28;9511;-65
2022/06/03 05:39:49;;;;;;;;;6.75;6.00;;;;;13.59;56.34;100132.41;5096693;28;8834;-65
2022/06/03 05:42:27;;;;;;;;;8.00;6.50;;;;;13.75;56.47;100128.19;5094515;28;8838;-65
2022/06/03 05:44:55;;;;;;;;;5.00;5.00;;;;;13.89;56.06;100130.47;5095072;28;8830;-65
2022/06/03 05:47:22;;;;;;;;;5.50;5.50;;;;;14.04;55.79;100125.59;5094758;28;8846;-64
2022/06/03 05:49:50;;;;;;;;;9.00;6.50;;;;;14.16;55.94;100116.41;5107035;28;8851;-65
2022/06/03 05:52:18;;;;;;;;;5.00;5.00;;;;;14.29;55.45;100117.88;5114510;28;8843;-65
2022/06/03 05:54:46;;;;;;;;;6.50;6.00;;;;;14.44;55.42;100112.94;5114568;28;9509;-65
2022/06/03 05:57:14;;;;;;;;;9.00;6.00;;;;;14.58;55.22;100107.97;5112894;28;8854;-65
2022/06/03 05:59:41;;;;;;;;;7.00;7.00;;;;;14.75;55.13;100117.13;5100963;28;8822;-65
2022/06/03 06:02:09;;;;;;;;;8.75;8.75;;;;;14.91;54.72;100099.44;5093041;28;8872;-66
2022/06/03 06:04:38;;;;;;;;;6.00;6.00;;;;;15.07;54.36;100094.31;5094203;28;8846;-65
2022/06/03 06:07:05;;;;;;;;;7.00;7.00;;;;;15.24;54.48;100095.38;5094058;28;8848;-66
2022/06/03 06:09:33;;;;;;;;;7.00;7.00;;;;;15.40;54.15;100092.94;5103258;28;9808;-65
2022/06/03 06:12:01;;;;;;;;;4.50;4.00;;;;;15.56;53.75;100090.44;5115394;28;8823;-65
2022/06/03 06:14:30;;;;;;;;;4.00;4.00;;;;;15.72;53.56;100093.31;5097339;28;8880;-66
2022/06/03 06:16:58;;;;;;;;;9.25;9.00;;;;;15.83;53.94;100095.78;5094628;28;8911;-65
2022/06/03 06:19:26;;;;;;;;;3.50;3.50;;;;;15.95;53.77;100091.88;5094955;28;8869;-66
2022/06/03 06:21:53;;;;;;;;;6.50;5.00;;;;;16.07;53.68;100082.63;5094249;28;8842;-66
2022/06/03 06:24:23;;;;;;;;;4.50;4.00;;;;;16.20;53.03;100074.00;5108203;28;8954;-66
2022/06/03 06:26:50;;;;;;;;;3.75;3.50;;;;;16.35;53.03;100068.94;5113980;28;8856;-63
2022/06/03 06:29:18;;;;;;;;;6.00;6.00;;;;;16.45;52.92;100070.56;5114033;28;8998;-65
2022/06/03 06:31:46;;;;;;;;;6.00;4.00;;;;;16.55;52.94;100060.56;5113701;28;8986;-66
2022/06/03 06:34:14;;;;;;;;;6.75;6.00;;;;;16.68;52.76;100066.38;5099129;28;8909;-65
2022/06/03 06:36:42;;;;;;;;;4.00;4.00;;;;;16.81;52.52;100066.81;5092783;28;8969;-65
2022/06/03 06:39:10;;;;;;;;;4.50;4.50;;;;;16.95;52.67;100068.88;5093612;28;8842;-66
2022/06/03 06:41:38;;;;;;;;;6.50;6.00;;;;;17.07;51.99;100074.84;5093596;28;8965;-65
2022/06/03 06:44:08;;;;;;;;;6.50;6.00;;;;;17.16;52.02;100077.41;5104623;28;8954;-66
2022/06/03 06:46:36;;;;;;;;;6.00;6.00;;;;;17.29;52.12;100071.59;5113289;28;8820;-64
2022/06/03 06:49:04;;;;;;;;;2.60;2.60;;;;;17.38;52.44;100076.06;5114083;28;9005;-64
2022/06/03 06:51:32;;;;;;;;;4.00;4.00;;;;;17.50;51.74;100078.28;5114794;28;8855;-64
2022/06/03 06:53:59;;;;;;;;;5.60;4.00;;;;;17.59;51.72;100080.00;5104435;28;8935;-65
2022/06/03 06:56:27;;;;;;;;;6.00;6.00;;;;;17.69;51.21;100080.69;5094983;28;8954;-65
2022/06/03 06:58:56;;;;;;;;;4.00;4.00;;;;;17.80;51.02;100084.94;5094908;28;9523;-64
2022/06/03 07:01:25;;;;;;;;;4.80;4.40;;;;;17.89;51.71;100082.13;5093439;28;8842;-64
2022/06/03 07:03:53;;;;;;;;;6.00;6.00;;;;;17.99;51.35;100072.03;5101952;28;8893;-65
2022/06/03 07:06:21;;;;;;;;;6.00;6.00;;;;;18.13;50.83;100075.94;5113286;28;8828;-64
2022/06/03 07:08:49;;;;;;;;;5.20;5.20;;;;;18.29;50.79;100073.25;5112401;28;9036;-64
2022/06/03 07:11:17;;;;;;;;;6.60;6.00;;;;;18.43;50.76;100072.63;5113088;28;8824;-65
2022/06/03 07:13:45;;;;;;;;;7.00;7.00;;;;;18.59;50.63;100068.03;5115570;28;8975;-64
2022/06/03 07:16:14;;;;;;;;;5.60;5.60;;;;;18.69;50.24;100060.63;5118315;28;8832;-64
2022/06/03 07:21:28;;;;;;;;;4.00;1.00;;;;;18.95;50.46;100060.38;5117732;28;8977;-64
2022/06/03 07:23:55;;;;;;;;;5.20;5.20;;;;;19.10;49.87;100064.06;5108429;28;8857;-64
2022/06/03 07:26:23;;;;;;;;;5.00;5.00;;;;;19.23;49.93;100072.50;5096859;28;8841;-65
2022/06/03 07:28:51;;;;;;;;;1.60;1.60;;;;;19.35;49.45;100068.44;5097742;28;8869;-64
2022/06/03 07:31:19;;;;;;;;;2.20;2.20;;;;;19.46;49.65;100070.72;5098034;28;8972;-64
2022/06/03 07:33:47;;;;;;;;;3.20;2.80;;;;;19.58;49.45;100070.16;5102214;28;8872;-64
2022/06/03 07:36:15;;;;;;;;;4.00;4.00;;;;;19.67;49.28;100069.13;5111786;28;8822;-65
2022/06/03 07:38:45;;;;;;;;;4.00;4.00;;;;;19.79;49.46;100067.69;5106358;28;8846;-65
2022/06/03 07:41:14;;;;;;;;;4.00;4.00;;;;;19.89;49.08;100068.31;5117987;28;9525;-65
2022/06/03 07:43:42;;;;;;;;;4.00;4.00;;;;;19.99;48.83;100057.25;5116965;28;8835;-64
2022/06/03 07:46:10;;;;;;;;;7.00;5.00;;;;;20.08;48.92;100053.50;5116859;28;8900;-64
2022/06/03 07:48:38;;;;;;;;;5.80;5.40;;;;;20.16;48.79;100058.91;5110169;28;9484;-64
2022/06/03 07:51:05;;;;;;;;;5.00;4.80;;;;;20.22;48.51;100048.19;5098245;28;8914;-65
2022/06/03 07:53:37;;;;;;;;;5.00;5.00;;;;;20.28;48.39;100049.31;5110031;28;8861;-65
2022/06/03 07:56:05;;;;;;;;;4.80;4.40;;;;;20.34;48.82;100040.47;5113911;28;8843;-65
2022/06/03 07:58:33;;;;;;;;;6.20;5.00;;;;;20.45;48.07;100031.91;5106761;28;8961;-65
2022/06/03 08:01:01;;;;;;;;;6.40;6.40;;;;;20.55;48.53;100033.34;5108427;28;8815;-65
2022/06/03 08:03:29;;;;;;;;;6.00;5.40;;;;;20.65;48.11;100025.84;5101753;28;8826;-65
2022/06/03 08:05:57;;;;;;;;;7.20;5.80;;;;;20.73;48.45;100023.88;5096382;28;8868;-67
2022/06/03 08:11:10;;;;;;;;;7.60;7.00;;;;;20.95;48.26;100033.00;5085335;28;8970;-65
2022/06/03 08:13:38;;;;;;;;;5.00;5.00;;;;;21.00;47.84;100027.84;5113658;28;8841;-64
2022/06/03 08:16:06;;;;;;;;;6.40;5.40;;;;;21.12;48.00;100026.38;5116758;28;8843;-66
2022/06/03 08:18:34;;;;;;;;;4.60;4.60;;;;;21.21;47.51;100025.22;5116327;28;8838;-64
2022/06/03 08:21:01;;;;;;;;;6.80;5.00;;;;;21.33;47.58;100040.00;5115364;28;8871;-64
2022/06/03 08:23:32;;;;;;;;;5.00;5.00;;;;;21.45;47.58;100033.06;5100341;28;8896;-64
2022/06/03 08:26:00;;;;;;;;;3.60;2.00;;;;;21.52;47.23;100020.44;5094218;28;8880;-65
2022/06/03 08:28:27;;;;;;;;;6.80;6.80;;;;;21.60;47.26;100014.91;5103992;28;8974;-65
2022/06/03 08:30:55;;;;;;;;;2.00;2.00;;;;;21.69;47.53;100013.78;5114101;28;8843;-65
2022/06/03 08:33:23;;;;;;;;;4.20;4.00;;;;;21.78;47.00;100018.09;5114892;28;8847;-64
2022/06/03 08:35:51;;;;;;;;;2.80;1.80;;;;;21.88;47.08;100016.72;5114582;28;8835;-65
2022/06/03 08:38:19;;;;;;;;;6.80;6.20;;;;;22.02;46.67;100012.28;5107017;28;8873;-65
2022/06/03 08:40:46;;;;;;;;;6.20;6.00;;;;;22.16;47.07;100022.25;5095253;28;8864;-65
2022/06/03 08:43:15;;;;;;;;;3.20;3.20;;;;;22.30;46.35;100022.16;5095418;28;8826;-66
2022/06/03 08:45:47;;;;;;;;;5.00;5.00;;;;;22.38;46.47;100004.91;5095968;28;8911;-65
2022/06/03 08:48:15;;;;;;;;;7.60;7.60;;;;;22.44;46.52;100012.28;5101532;28;8836;-65
2022/06/03 08:50:43;;;;;;;;;6.00;6.00;;;;;22.53;46.45;100011.13;5115853;28;8852;-66
2022/06/03 08:53:18;;;;;;;;;8.00;8.00;;;;;22.55;46.84;100009.88;5115251;28;8836;-65
2022/06/03 08:55:46;;;;;;;;;5.00;4.60;;;;;22.56;46.77;100002.56;5115369;28;8854;-65
2022/06/03 08:58:14;;;;;;;;;8.20;7.60;;;;;22.57;46.54;100009.69;5108650;28;8830;-65
2022/06/03 09:00:41;;;;;;;;;8.60;7.60;;;;;22.62;47.03;100004.50;5095114;28;8844;-65
2022/06/03 09:03:09;;;;;;;;;4.00;4.00;;;;;22.66;46.84;100009.34;5094944;28;9472;-65
2022/06/03 09:05:37;;;;;;;;;8.20;8.20;;;;;22.76;46.35;100014.44;5094683;28;8907;-65
2022/06/03 09:08:06;;;;;;;;;7.20;6.80;;;;;22.81;46.79;100011.94;5100445;28;8962;-69
2022/06/03 09:10:34;;;;;;;;;8.60;8.60;;;;;22.85;47.02;100018.69;5115859;28;8827;-65
2022/06/03 09:13:02;;;;;;;;;7.60;6.40;;;;;22.92;46.71;100014.94;5115367;28;8843;-65
2022/06/03 09:15:30;;;;;;;;;7.40;7.00;;;;;22.96;46.65;100013.53;5095277;28;8838;-65
2022/06/03 09:17:57;;;;;;;;;8.80;8.20;;;;;23.06;46.58;100011.28;5094854;28;8837;-70
2022/06/03 09:20:25;;;;;;;;;10.00;9.60;;;;;23.17;46.83;100008.06;5094952;28;8868;-66
2022/06/03 09:22:53;;;;;;;;;8.00;8.00;;;;;23.31;46.32;100007.06;5103153;28;8854;-66
2022/06/03 09:25:21;;;;;;;;;4.20;4.00;;;;;23.43;46.27;100010.88;5074370;28;8958;-65
2022/06/03 09:27:49;;;;;;;;;9.00;8.80;;;;;23.59;46.09;100007.00;5074224;28;8858;-65
2022/06/03 09:30:19;;;;;;;;;7.20;7.20;;;;;23.68;45.94;100011.19;5073320;28;8909;-65
2022/06/03 09:32:49;;;;;;;;;9.00;9.00;;;;;23.76;45.80;99994.69;5073066;28;8886;-65
2022/06/03 09:35:17;;;;;;;;;8.40;7.80;;;;;23.87;45.59;100005.00;5073056;28;8840;-65
2022/06/03 09:37:45;;;;;;;;;7.20;7.20;;;;;24.00;45.29;99992.28;5094328;28;8860;-65
2022/06/03 09:40:14;;;;;;;;;10.20;9.40;;;;;24.17;45.08;100000.88;5095030;28;8979;-65
2022/06/03 09:42:41;;;;;;;;;8.60;8.60;;;;;24.23;45.30;99995.47;5093993;28;8891;-65
2022/06/03 09:45:09;;;;;;;;;6.80;6.80;;;;;24.26;44.61;99997.75;5095655;28;8838;-64
2022/06/03 09:47:37;;;;;;;;;8.20;8.20;;;;;24.31;44.77;99994.41;5094048;28;8895;-65
2022/06/03 09:50:05;;;;;;;;;6.60;6.00;;;;;24.47;44.81;99991.25;5093744;28;8876;-66
2022/06/03 09:52:33;;;;;;;;;10.00;8.80;;;;;24.68;44.54;99993.81;5093867;28;8844;-65
2022/06/03 09:55:01;;;;;;;;;6.40;6.20;;;;;24.94;44.23;99988.34;5095240;28;8834;-66
2022/06/03 09:57:29;;;;;;;;;7.60;6.80;;;;;25.29;43.31;99987.00;5093290;28;8946;-65
2022/06/03 09:59:57;;;;;;;;;6.00;6.00;;;;;25.66;42.43;99979.69;5092830;28;8837;-65
2022/06/03 10:02:25;;;;;;;;;6.40;6.40;;;;;25.89;42.47;99980.00;5093934;28;8840;-66
2022/06/03 10:04:53;;;;;;;;;8.40;8.40;;;;;25.93;42.57;99974.94;5100627;28;8963;-67
2022/06/03 10:07:25;;;;;;;;;7.60;6.60;;;;;26.05;42.09;99979.47;5113335;28;8857;-67
2022/06/03 10:12:50;;;;;;;;;6.80;6.60;;;;;26.70;41.02;99973.53;5112922;28;8848;-66
2022/06/03 10:18:04;;;;;;;;;7.00;7.00;;;;;27.76;40.30;99958.47;5092505;28;9008;-65
2022/06/03 10:20:32;;;;;;;;;8.60;8.00;;;;;28.15;39.26;99961.44;5092304;28;8857;-66
2022/06/03 10:23:00;;;;;;;;;6.40;6.40;;;;;28.40;38.92;99951.16;5090430;28;8866;-66
2022/06/03 10:25:27;;;;;;;;;5.80;5.40;;;;;28.66;38.84;99956.19;5102251;28;9003;-67
2022/06/03 10:27:55;;;;;;;;;7.60;6.80;;;;;28.61;39.16;99953.31;5102643;28;8830;-65
2022/06/03 10:30:23;;;;;;;;;8.00;7.80;;;;;28.41;39.52;99946.50;5093120;28;8948;-66
2022/06/03 10:32:51;;;;;;;;;3.00;3.00;;;;;28.43;38.91;99945.19;5093146;28;8838;-65
2022/06/03 10:35:25;;;;;;;;;7.00;7.00;;;;;28.75;38.51;99946.53;5098842;28;8826;-65
2022/06/03 10:37:53;;;;;;;;;7.20;7.20;;;;;29.09;37.93;99948.44;5113756;28;8935;-65
2022/06/03 10:40:21;;;;;;;;;8.00;8.00;;;;;29.27;37.72;99951.03;5103716;28;8829;-64
2022/06/03 10:42:49;;;;;;;;;6.80;6.60;;;;;29.32;37.47;99953.03;5110556;28;8820;-65
2022/06/03 10:45:17;;;;;;;;;3.00;3.00;;;;;29.48;36.83;99950.38;5108674;28;8917;-66
2022/06/03 10:47:46;;;;;;;;;6.00;6.00;;;;;29.79;36.66;99952.66;5094741;28;8856;-66
2022/06/03 10:50:14;;;;;;;;;4.80;4.80;;;;;30.05;36.66;99960.31;5096737;28;9507;-65
2022/06/03 11:01:09;;;;;;;;;4.60;4.20;;;;;29.54;37.17;99943.94;5097659;28;8965;-66
2022/06/03 11:03:38;;;;;;;;;5.80;5.40;;;;;29.39;37.74;99935.38;5096285;28;8833;-66
2022/06/03 11:06:06;;;;;;;;;8.00;7.60;;;;;28.80;38.43;99927.44;5096327;28;8834;-66
2022/06/03 11:08:33;;;;;;;;;4.80;4.80;;;;;28.35;39.23;99925.53;5096709;28;8922;-66
2022/06/03 11:11:02;;;;;;;;;7.60;7.60;;;;;28.43;39.00;99923.28;5113932;28;8824;-65
2022/06/03 11:13:30;;;;;;;;;4.20;4.20;;;;;28.98;37.74;99918.28;5116397;28;8812;-65
2022/06/03 11:16:04;;;;;;;;;5.80;5.40;;;;;29.19;37.60;99910.25;5116731;28;8843;-65
2022/06/03 11:18:34;;;;;;;;;6.80;6.80;;;;;28.89;37.93;99917.78;5117767;28;8848;-65
2022/06/03 11:21:01;;;;;;;;;5.60;4.80;;;;;28.55;38.56;99921.38;5098980;28;8824;-65
2022/06/03 11:23:29;;;;;;;;;5.60;5.60;;;;;28.34;38.46;99927.41;5096872;28;8976;-65
2022/06/03 11:26:00;;;;;;;;;4.00;4.00;;;;;28.65;37.54;99929.00;5106722;28;8820;-65
2022/06/03 11:28:33;;;;;;;;;4.40;4.20;;;;;29.14;36.27;99934.00;5117363;28;8852;-65
2022/06/03 11:31:11;;;;;;;;;4.00;4.00;;;;;29.95;35.47;99904.34;5097209;28;8843;-66
2022/06/03 11:33:39;;;;;;;;;5.20;4.20;;;;;30.45;34.67;99899.72;5096376;28;8833;-66
2022/06/03 11:36:07;;;;;;;;;5.80;5.80;;;;;30.50;34.50;99903.41;5095417;28;8977;-66
2022/06/03 11:38:35;;;;;;;;;5.20;5.20;;;;;30.85;34.12;99903.94;5099346;28;8854;-66
2022/06/03 11:41:03;;;;;;;;;4.00;4.00;;;;;31.51;33.74;99896.31;5107962;28;8808;-65
2022/06/03 11:43:32;;;;;;;;;5.00;5.00;;;;;31.97;33.24;99897.63;5097320;28;8826;-66
2022/06/03 11:46:20;;;;;;;;;4.80;4.80;;;;;31.51;33.71;99903.72;5114925;28;8874;-66
2022/06/03 11:48:49;;;;;;;;;5.80;5.80;;;;;30.73;35.10;99900.47;5115551;28;8856;-65
2022/06/03 11:51:17;;;;;;;;;6.20;6.20;;;;;30.30;35.48;99900.31;5115405;28;8867;-66
2022/06/03 11:53:47;;;;;;;;;4.80;4.80;;;;;30.46;34.86;99907.72;5095360;28;8960;-65
2022/06/03 11:56:15;;;;;;;;;5.40;5.40;;;;;30.20;35.37;99902.91;5095611;28;8834;-65
2022/06/03 11:58:43;;;;;;;;;4.80;4.60;;;;;29.94;35.95;99899.94;5094884;28;8960;-65
2022/06/03 12:01:11;;;;;;;;;4.00;4.00;;;;;29.53;35.89;99898.34;5096280;28;8976;-66
2022/06/03 12:03:40;;;;;;;;;2.00;1.40;;;;;28.97;37.05;99902.91;5097705;28;8822;-66